createdAt,value
2022-08-07T00:02:37.155Z,14.80
2022-08-07T00:03:47.248Z,14.80
2022-08-07T00:05:46.382Z,14.80
2022-08-07T00:07:46.303Z,14.70
2022-08-07T00:10:04.713Z,14.60
2022-08-07T00:11:53.882Z,14.60
2022-08-07T00:13:46.285Z,14.60
2022-08-07T00:15:51.051Z,14.40
2022-08-07T00:17:46.300Z,14.40
2022-08-07T00:20:00.993Z,14.40
2022-08-07T00:21:55.886Z,14.40
2022-08-07T00:23:46.366Z,14.30
2022-08-07T00:25:52.501Z,14.20
2022-08-07T00:27:52.370Z,14.10
2022-08-07T00:29:46.331Z,14.20
2022-08-07T00:31:46.331Z,14.20
2022-08-07T00:33:47.800Z,14.00
2022-08-07T00:35:49.471Z,14.00
2022-08-07T00:37:47.988Z,14.00
2022-08-07T00:39:54.593Z,14.00
2022-08-07T00:41:53.633Z,14.00
2022-08-07T00:44:01.433Z,13.90
2022-08-07T00:45:46.455Z,13.90
2022-08-07T00:48:09.324Z,14.00
2022-08-07T00:50:20.697Z,14.00
2022-08-07T00:51:56.592Z,14.00
2022-08-07T00:53:50.504Z,14.00
2022-08-07T00:56:02.528Z,14.00
2022-08-07T00:57:55.792Z,14.00
2022-08-07T00:59:46.333Z,14.00
2022-08-07T01:01:46.379Z,14.00
2022-08-07T01:03:55.420Z,13.90
2022-08-07T01:05:51.585Z,13.90
2022-08-07T01:07:46.330Z,13.80
2022-08-07T01:10:06.557Z,13.80
2022-08-07T01:12:09.180Z,13.80
2022-08-07T01:13:55.555Z,13.70
2022-08-07T01:16:01.025Z,13.80
2022-08-07T01:17:46.357Z,13.80
2022-08-07T01:19:54.390Z,13.80
2022-08-07T01:21:46.640Z,13.80
2022-08-07T01:23:46.774Z,13.80
2022-08-07T01:25:55.798Z,13.70
2022-08-07T01:27:51.481Z,13.70
2022-08-07T01:29:46.414Z,13.60
2022-08-07T01:31:48.690Z,13.50
2022-08-07T01:33:54.034Z,13.40
2022-08-07T01:35:53.473Z,13.20
2022-08-07T01:37:46.366Z,13.20
2022-08-07T01:39:47.105Z,13.20
2022-08-07T01:42:07.371Z,13.20
2022-08-07T01:43:46.337Z,13.20
2022-08-07T01:45:46.670Z,13.20
2022-08-07T01:48:21.340Z,13.20
2022-08-07T01:50:16.358Z,13.20
2022-08-07T01:52:16.374Z,13.20
2022-08-07T01:54:21.950Z,13.20
2022-08-07T01:56:16.367Z,13.20
2022-08-07T01:58:29.585Z,13.10
2022-08-07T02:00:16.366Z,13.10
2022-08-07T02:03:11.409Z,13.00
2022-08-07T02:04:16.423Z,13.00
2022-08-07T02:06:31.722Z,12.90
2022-08-07T02:08:16.377Z,12.80
2022-08-07T02:10:16.378Z,12.80
2022-08-07T02:12:17.670Z,12.80
2022-08-07T02:14:35.870Z,12.80
2022-08-07T02:16:16.386Z,12.70
2022-08-07T02:18:16.386Z,12.70
2022-08-07T02:20:17.473Z,12.80
2022-08-07T02:22:18.544Z,12.80
2022-08-07T02:24:17.635Z,12.80
2022-08-07T02:26:32.484Z,12.80
2022-08-07T02:28:24.792Z,12.80
2022-08-07T02:30:16.387Z,12.80
2022-08-07T02:32:16.374Z,12.80
2022-08-07T02:34:18.049Z,12.80
2022-08-07T02:36:29.207Z,12.80
2022-08-07T02:38:16.406Z,12.80
2022-08-07T02:40:35.116Z,12.80
2022-08-07T02:42:16.571Z,12.80
2022-08-07T02:44:16.419Z,12.80
2022-08-07T02:46:16.420Z,12.80
2022-08-07T02:48:16.407Z,12.80
2022-08-07T02:50:16.398Z,12.90
2022-08-07T02:52:16.392Z,13.00
2022-08-07T02:54:16.419Z,13.00
2022-08-07T02:56:21.154Z,13.00
2022-08-07T02:58:16.422Z,13.00
2022-08-07T03:00:16.410Z,13.00
2022-08-07T03:02:16.480Z,13.00
2022-08-07T03:04:16.429Z,13.10
2022-08-07T03:06:16.795Z,13.10
2022-08-07T03:08:16.448Z,13.20
2022-08-07T03:10:16.423Z,13.30
2022-08-07T03:12:22.427Z,13.30
2022-08-07T03:14:16.411Z,13.30
2022-08-07T03:16:16.410Z,13.30
2022-08-07T03:18:18.583Z,13.30
2022-08-07T03:20:16.420Z,13.30
2022-08-07T03:22:19.030Z,13.30
2022-08-07T03:24:20.229Z,13.30
2022-08-07T03:26:23.401Z,13.30
2022-08-07T03:28:37.749Z,13.30
2022-08-07T03:30:16.438Z,13.20
2022-08-07T03:32:16.431Z,13.30
2022-08-07T03:34:18.155Z,13.30
2022-08-07T03:36:16.426Z,13.20
2022-08-07T03:38:16.441Z,13.20
2022-08-07T03:40:17.039Z,13.20
2022-08-07T03:42:16.435Z,13.20
2022-08-07T03:44:53.184Z,13.20
2022-08-07T03:47:11.021Z,13.10
2022-08-07T03:49:02.645Z,13.00
2022-08-07T03:50:55.724Z,12.90
2022-08-07T03:52:46.432Z,12.90
2022-08-07T03:54:54.568Z,12.90
2022-08-07T03:57:03.605Z,12.90
2022-08-07T03:59:09.635Z,12.90
2022-08-07T04:00:53.326Z,12.90
2022-08-07T04:02:47.085Z,12.90
2022-08-07T04:04:46.455Z,12.90
2022-08-07T04:06:46.560Z,12.90
2022-08-07T04:08:46.445Z,12.90
2022-08-07T04:10:54.563Z,12.80
2022-08-07T04:12:46.502Z,12.80
2022-08-07T04:14:48.996Z,12.80
2022-08-07T04:16:58.485Z,12.80
2022-08-07T04:18:59.316Z,12.80
2022-08-07T04:20:54.565Z,12.80
2022-08-07T04:22:53.672Z,12.80
2022-08-07T04:24:46.482Z,12.80
2022-08-07T04:26:46.465Z,13.00
2022-08-07T04:28:46.464Z,13.10
2022-08-07T04:30:55.492Z,13.10
2022-08-07T04:32:47.919Z,13.10
2022-08-07T04:34:46.487Z,13.10
2022-08-07T04:36:49.534Z,13.10
2022-08-07T04:38:46.469Z,13.20
2022-08-07T04:40:52.599Z,13.20
2022-08-07T04:42:46.481Z,13.10
2022-08-07T04:44:54.692Z,13.10
2022-08-07T04:47:04.731Z,13.10
2022-08-07T04:48:46.468Z,13.10
2022-08-07T04:50:52.168Z,13.10
2022-08-07T04:52:46.739Z,13.20
2022-08-07T04:54:50.555Z,13.20
2022-08-07T04:58:13.073Z,13.20
2022-08-07T04:59:18.178Z,13.20
2022-08-07T05:00:46.616Z,13.30
2022-08-07T05:02:47.679Z,13.30
2022-08-07T05:04:50.163Z,13.30
2022-08-07T05:06:51.660Z,13.40
2022-08-07T05:09:01.187Z,13.40
2022-08-07T05:10:46.593Z,13.50
2022-08-07T05:12:51.510Z,13.60
2022-08-07T05:14:54.684Z,13.80
2022-08-07T05:16:46.508Z,13.80
2022-08-07T05:18:46.497Z,14.00
2022-08-07T05:20:46.498Z,14.10
2022-08-07T05:22:46.488Z,14.40
2022-08-07T05:24:46.519Z,14.50
2022-08-07T05:26:46.517Z,14.50
2022-08-07T05:28:48.714Z,14.60
2022-08-07T05:30:47.128Z,14.60
2022-08-07T05:32:46.506Z,14.70
2022-08-07T05:34:46.522Z,14.90
2022-08-07T05:36:49.102Z,14.90
2022-08-07T05:38:59.823Z,15.00
2022-08-07T05:41:16.750Z,15.00
2022-08-07T05:43:16.551Z,15.00
2022-08-07T05:45:46.307Z,15.00
2022-08-07T05:47:18.813Z,15.30
2022-08-07T05:49:16.530Z,15.30
2022-08-07T05:51:16.515Z,15.40
2022-08-07T05:54:11.954Z,15.50
2022-08-07T05:55:16.521Z,15.60
2022-08-07T05:57:16.549Z,15.60
2022-08-07T05:59:16.540Z,15.60
2022-08-07T06:01:16.662Z,15.70
2022-08-07T06:03:16.525Z,15.80
2022-08-07T06:05:16.546Z,15.80
2022-08-07T06:07:22.721Z,16.00
2022-08-07T06:09:16.548Z,16.00
2022-08-07T06:11:16.544Z,16.10
2022-08-07T06:13:16.534Z,16.10
2022-08-07T06:15:16.580Z,16.20
2022-08-07T06:17:16.536Z,16.20
2022-08-07T06:19:17.611Z,16.20
2022-08-07T06:22:15.646Z,16.30
2022-08-07T06:23:45.799Z,16.30
2022-08-07T06:25:16.652Z,16.30
2022-08-07T06:27:22.790Z,16.30
2022-08-07T06:29:16.655Z,16.40
2022-08-07T06:31:16.568Z,16.50
2022-08-07T06:33:16.979Z,16.60
2022-08-07T06:35:18.028Z,16.70
2022-08-07T06:40:18.366Z,16.80
2022-08-07T06:42:00.716Z,16.90
2022-08-07T06:43:25.179Z,17.00
2022-08-07T06:45:25.201Z,17.20
2022-08-07T06:47:25.100Z,17.20
2022-08-07T06:49:25.089Z,17.40
2022-08-07T06:51:33.047Z,17.50
2022-08-07T06:55:28.955Z,17.60
2022-08-07T06:55:32.877Z,17.60
2022-08-07T06:57:39.882Z,17.70
2022-08-07T07:00:14.595Z,17.90
2022-08-07T07:01:25.133Z,18.00
2022-08-07T07:03:26.502Z,18.10
2022-08-07T07:06:03.843Z,18.10
2022-08-07T07:07:59.202Z,18.10
2022-08-07T07:09:25.093Z,18.40
2022-08-07T07:12:08.869Z,18.60
2022-08-07T07:13:55.680Z,18.60
2022-08-07T07:15:26.307Z,18.60
2022-08-07T07:17:25.107Z,18.60
2022-08-07T07:19:55.020Z,18.50
2022-08-07T07:21:27.165Z,18.40
2022-08-07T07:24:10.429Z,18.40
2022-08-07T07:26:31.639Z,18.60
2022-08-07T07:27:25.122Z,18.90
2022-08-07T07:29:40.493Z,19.20
2022-08-07T07:31:25.124Z,19.30
2022-08-07T07:33:25.119Z,19.30
2022-08-07T07:35:25.205Z,19.40
2022-08-07T07:37:45.075Z,19.50
2022-08-07T07:39:25.489Z,19.50
2022-08-07T07:41:30.933Z,19.40
2022-08-07T07:43:27.629Z,19.40
2022-08-07T07:46:39.946Z,19.60
2022-08-07T07:47:25.179Z,19.60
2022-08-07T07:50:34.944Z,19.90
2022-08-07T07:51:25.130Z,19.90
2022-08-07T07:53:25.875Z,19.80
2022-08-07T07:55:25.164Z,19.80
2022-08-07T07:57:43.909Z,19.80
2022-08-07T07:59:51.658Z,20.00
2022-08-07T08:02:03.943Z,20.00
2022-08-07T08:04:10.611Z,20.40
2022-08-07T08:05:30.284Z,20.50
2022-08-07T08:07:35.842Z,20.70
2022-08-07T08:09:25.143Z,20.90
2022-08-07T08:11:59.184Z,20.90
2022-08-07T08:13:25.136Z,20.80
2022-08-07T08:15:25.186Z,20.60
2022-08-07T08:17:57.501Z,20.60
2022-08-07T08:20:19.263Z,20.60
2022-08-07T08:22:03.220Z,20.90
2022-08-07T08:23:55.186Z,21.00
2022-08-07T08:25:56.154Z,21.50
2022-08-07T08:27:57.458Z,21.50
2022-08-07T08:29:55.848Z,21.50
2022-08-07T08:32:17.153Z,21.80
2022-08-07T08:33:55.491Z,21.90
2022-08-07T08:35:55.187Z,22.00
2022-08-07T08:37:59.431Z,21.80
2022-08-07T08:39:58.375Z,21.80
2022-08-07T08:41:58.376Z,21.80
2022-08-07T08:43:58.654Z,21.70
2022-08-07T08:45:59.197Z,21.90
2022-08-07T08:47:55.354Z,21.70
2022-08-07T08:50:02.964Z,21.70
2022-08-07T08:52:13.304Z,21.50
2022-08-07T08:53:55.177Z,21.40
2022-08-07T08:55:58.474Z,21.40
2022-08-07T08:57:55.198Z,21.40
2022-08-07T08:59:55.271Z,21.60
2022-08-07T09:01:59.590Z,22.00
2022-08-07T09:03:55.465Z,22.00
2022-08-07T09:05:55.199Z,22.20
2022-08-07T09:07:58.078Z,22.20
2022-08-07T09:09:57.250Z,22.20
2022-08-07T09:12:01.697Z,21.70
2022-08-07T09:13:55.281Z,21.60
2022-08-07T09:16:24.603Z,20.90
2022-08-07T09:17:59.337Z,20.90
2022-08-07T09:19:55.551Z,20.80
2022-08-07T09:22:09.813Z,21.10
2022-08-07T09:24:32.969Z,21.20
2022-08-07T09:25:55.252Z,21.20
2022-08-07T09:28:01.310Z,21.40
2022-08-07T09:30:05.999Z,21.60
2022-08-07T09:31:55.286Z,21.60
2022-08-07T09:33:57.885Z,21.50
2022-08-07T09:36:01.225Z,21.50
2022-08-07T09:37:55.277Z,21.70
2022-08-07T09:39:57.973Z,21.70
2022-08-07T09:42:03.009Z,21.80
2022-08-07T09:44:05.952Z,22.00
2022-08-07T09:47:23.774Z,22.00
2022-08-07T09:48:01.690Z,22.00
2022-08-07T09:50:02.769Z,22.00
2022-08-07T09:52:16.788Z,22.10
2022-08-07T09:53:59.348Z,22.10
2022-08-07T09:56:04.677Z,22.10
2022-08-07T09:57:55.259Z,22.10
2022-08-07T10:00:01.337Z,22.40
2022-08-07T10:01:55.339Z,22.50
2022-08-07T10:04:03.758Z,22.50
2022-08-07T10:05:59.901Z,22.20
2022-08-07T10:07:55.685Z,22.20
2022-08-07T10:10:00.355Z,22.50
2022-08-07T10:12:01.779Z,22.40
2022-08-07T10:14:01.837Z,22.40
2022-08-07T10:15:55.262Z,22.40
2022-08-07T10:18:01.135Z,22.40
2022-08-07T10:19:55.310Z,22.60
2022-08-07T10:22:15.717Z,22.60
2022-08-07T10:24:25.313Z,22.30
2022-08-07T10:26:25.280Z,22.30
2022-08-07T10:28:25.325Z,22.50
2022-08-07T10:30:26.524Z,22.50
2022-08-07T10:32:51.144Z,22.50
2022-08-07T10:34:27.187Z,22.80
2022-08-07T10:36:29.455Z,22.80
2022-08-07T10:38:48.010Z,23.00
2022-08-07T10:40:30.260Z,23.00
2022-08-07T10:42:31.299Z,23.00
2022-08-07T10:44:33.779Z,23.30
2022-08-07T10:46:25.340Z,23.30
2022-08-07T10:48:25.375Z,23.50
2022-08-07T10:50:26.037Z,23.90
2022-08-07T10:52:31.825Z,24.00
2022-08-07T10:54:25.390Z,24.00
2022-08-07T10:56:31.040Z,23.80
2022-08-07T10:58:33.230Z,23.80
2022-08-07T11:00:39.495Z,23.60
2022-08-07T11:02:33.544Z,23.60
2022-08-07T11:04:31.854Z,23.60
2022-08-07T11:06:26.904Z,24.30
2022-08-07T11:08:30.221Z,24.70
2022-08-07T11:10:27.576Z,24.70
2022-08-07T11:12:32.087Z,24.80
2022-08-07T11:14:45.086Z,24.80
2022-08-07T11:16:29.966Z,24.80
2022-08-07T11:18:25.313Z,24.60
2022-08-07T11:20:25.362Z,24.80
2022-08-07T11:22:33.343Z,24.80
2022-08-07T11:24:25.318Z,24.90
2022-08-07T11:26:25.356Z,25.10
2022-08-07T11:28:25.326Z,25.20
2022-08-07T11:30:41.382Z,25.70
2022-08-07T11:32:26.444Z,25.70
2022-08-07T11:34:25.339Z,26.30
2022-08-07T11:36:30.890Z,26.30
2022-08-07T11:38:28.186Z,26.10
2022-08-07T11:40:27.647Z,25.70
2022-08-07T11:42:29.754Z,25.70
2022-08-07T11:44:25.442Z,25.60
2022-08-07T11:46:25.330Z,25.90
2022-08-07T11:48:29.807Z,26.10
2022-08-07T11:50:32.853Z,26.10
2022-08-07T11:52:29.409Z,26.10
2022-08-07T11:54:25.680Z,25.90
2022-08-07T11:56:27.992Z,26.30
2022-08-07T11:58:33.185Z,26.70
2022-08-07T12:00:28.399Z,26.70
2022-08-07T12:02:30.487Z,27.10
2022-08-07T12:04:25.339Z,27.30
2022-08-07T12:06:39.224Z,26.90
2022-08-07T12:08:31.363Z,26.80
2022-08-07T12:10:25.417Z,26.80
2022-08-07T12:12:25.382Z,27.10
2022-08-07T12:14:25.384Z,27.60
2022-08-07T12:16:29.665Z,27.10
2022-08-07T12:18:29.855Z,26.60
2022-08-07T12:20:30.791Z,26.60
2022-08-07T12:22:56.340Z,26.50
2022-08-07T12:24:37.079Z,26.60
2022-08-07T12:26:29.896Z,26.10
2022-08-07T12:28:31.201Z,26.10
2022-08-07T12:30:55.373Z,26.40
2022-08-07T12:32:55.364Z,26.40
2022-08-07T12:34:56.072Z,26.50
2022-08-07T12:36:55.378Z,26.60
2022-08-07T12:38:57.287Z,26.60
2022-08-07T12:40:55.699Z,26.70
2022-08-07T12:42:57.398Z,26.10
2022-08-07T12:44:55.404Z,26.50
2022-08-07T12:46:55.381Z,27.00
2022-08-07T12:48:55.441Z,27.00
2022-08-07T12:50:55.414Z,26.60
2022-08-07T12:52:55.411Z,27.20
2022-08-07T12:54:57.329Z,27.50
2022-08-07T12:56:55.453Z,27.50
2022-08-07T12:58:58.099Z,27.40
2022-08-07T13:00:56.773Z,27.20
2022-08-07T13:02:55.413Z,27.10
2022-08-07T13:05:01.600Z,26.90
2022-08-07T13:07:01.141Z,26.90
2022-08-07T13:08:55.414Z,26.80
2022-08-07T13:10:55.812Z,26.80
2022-08-07T13:12:56.105Z,26.80
2022-08-07T13:14:55.490Z,27.00
2022-08-07T13:16:55.423Z,27.00
2022-08-07T13:18:55.477Z,26.80
2022-08-07T13:20:55.431Z,26.60
2022-08-07T13:22:55.427Z,26.40
2022-08-07T13:24:55.437Z,26.40
2022-08-07T13:26:55.604Z,26.60
2022-08-07T13:28:58.227Z,26.60
2022-08-07T13:31:01.709Z,26.40
2022-08-07T13:32:55.498Z,26.70
2022-08-07T13:34:55.503Z,26.70
2022-08-07T13:36:55.496Z,26.80
2022-08-07T13:38:55.523Z,27.00
2022-08-07T13:40:56.027Z,27.00
2022-08-07T13:42:55.435Z,26.70
2022-08-07T13:46:06.174Z,26.70
2022-08-07T13:46:55.519Z,26.30
2022-08-07T13:48:58.539Z,26.30
2022-08-07T13:51:27.447Z,26.60
2022-08-07T13:53:10.097Z,26.60
2022-08-07T13:55:10.898Z,26.60
2022-08-07T13:57:10.103Z,26.60
2022-08-07T13:59:12.110Z,26.80
2022-08-07T14:01:10.170Z,26.70
2022-08-07T14:03:10.272Z,26.70
2022-08-07T14:05:10.333Z,26.80
2022-08-07T14:07:10.273Z,26.80
2022-08-07T14:09:16.957Z,26.80
2022-08-07T14:11:14.939Z,26.80
2022-08-07T14:13:10.125Z,26.80
2022-08-07T14:15:10.178Z,26.40
2022-08-07T14:17:51.630Z,26.90
2022-08-07T14:19:10.225Z,27.00
2022-08-07T14:21:20.936Z,27.00
2022-08-07T14:23:13.237Z,27.00
2022-08-07T14:25:10.951Z,26.60
2022-08-07T14:28:09.167Z,26.60
2022-08-07T14:30:05.462Z,26.50
2022-08-07T14:31:10.183Z,26.50
2022-08-07T14:33:10.298Z,26.60
2022-08-07T14:35:10.249Z,26.60
2022-08-07T14:37:16.645Z,26.70
2022-08-07T14:39:12.474Z,26.00
2022-08-07T14:41:12.454Z,26.00
2022-08-07T14:45:20.824Z,26.30
2022-08-07T14:47:14.590Z,26.20
2022-08-07T14:49:56.057Z,25.90
2022-08-07T14:53:10.339Z,26.00
2022-08-07T14:55:10.158Z,25.90
2022-08-07T14:57:10.253Z,25.90
2022-08-07T14:59:13.743Z,25.90
2022-08-07T15:03:18.930Z,25.80
2022-08-07T15:05:19.793Z,25.60
2022-08-07T15:07:17.836Z,25.50
2022-08-07T15:09:58.463Z,25.50
2022-08-07T15:11:10.270Z,25.40
2022-08-07T15:13:11.664Z,25.50
2022-08-07T15:15:21.392Z,25.50
2022-08-07T15:19:10.255Z,25.40
2022-08-07T15:21:44.467Z,25.20
2022-08-07T15:23:17.015Z,25.10
2022-08-07T15:25:17.977Z,25.20
2022-08-07T15:27:10.187Z,25.20
2022-08-07T15:30:10.050Z,25.20
2022-08-07T15:31:10.213Z,25.30
2022-08-07T15:33:19.410Z,25.20
2022-08-07T15:35:10.200Z,25.20
2022-08-07T15:37:10.209Z,25.20
2022-08-07T15:39:56.424Z,25.10
2022-08-07T15:43:55.614Z,24.90
2022-08-07T15:45:58.322Z,25.00
2022-08-07T15:47:59.958Z,25.00
2022-08-07T15:50:03.923Z,25.10
2022-08-07T15:53:52.137Z,25.10
2022-08-07T15:55:53.762Z,25.10
2022-08-07T15:57:48.584Z,25.20
2022-08-07T15:59:44.084Z,25.20
2022-08-07T16:01:40.271Z,25.10
2022-08-07T16:03:47.260Z,25.00
2022-08-07T16:05:40.277Z,25.00
2022-08-07T16:08:32.211Z,24.90
2022-08-07T16:09:41.973Z,24.90
2022-08-07T16:11:41.674Z,24.90
2022-08-07T16:13:59.838Z,24.80
2022-08-07T16:15:55.049Z,24.80
2022-08-07T16:18:00.808Z,24.80
2022-08-07T16:19:42.989Z,24.80
2022-08-07T16:22:01.418Z,24.70
2022-08-07T16:23:54.635Z,24.70
2022-08-07T16:25:54.045Z,24.60
2022-08-07T16:27:41.550Z,24.60
2022-08-07T16:30:09.869Z,24.70
2022-08-07T16:31:50.919Z,24.60
2022-08-07T16:34:03.083Z,24.50
2022-08-07T16:35:51.553Z,24.50
2022-08-07T16:38:06.926Z,24.50
2022-08-07T16:39:49.097Z,24.60
2022-08-07T16:41:41.260Z,24.60
2022-08-07T16:44:05.577Z,24.70
2022-08-07T16:46:47.650Z,24.80
2022-08-07T16:47:52.950Z,24.80
2022-08-07T16:50:27.053Z,24.80
2022-08-07T16:51:54.470Z,24.80
2022-08-07T16:54:01.942Z,24.80
2022-08-07T16:55:43.672Z,24.70
2022-08-07T16:58:02.867Z,24.70
2022-08-07T16:59:45.848Z,24.60
2022-08-07T17:01:41.238Z,24.40
2022-08-07T17:03:58.069Z,24.40
2022-08-07T17:06:19.849Z,24.40
2022-08-07T17:07:55.613Z,24.40
2022-08-07T17:10:05.472Z,24.40
2022-08-07T17:12:03.951Z,24.30
2022-08-07T17:14:17.573Z,24.30
2022-08-07T17:15:43.889Z,24.30
2022-08-07T17:17:46.667Z,24.30
2022-08-07T17:20:02.935Z,24.10
2022-08-07T17:21:50.751Z,24.10
2022-08-07T17:23:40.305Z,24.10
2022-08-07T17:25:51.106Z,24.10
2022-08-07T17:27:51.050Z,24.00
2022-08-07T17:30:14.411Z,23.90
2022-08-07T17:31:44.304Z,23.90
2022-08-07T17:34:15.135Z,23.90
2022-08-07T17:35:54.962Z,24.00
2022-08-07T17:38:09.365Z,23.80
2022-08-07T17:39:57.727Z,23.70
2022-08-07T17:42:03.778Z,23.60
2022-08-07T17:44:14.708Z,23.60
2022-08-07T17:46:10.372Z,23.60
2022-08-07T17:48:12.834Z,23.70
2022-08-07T17:50:16.460Z,23.60
2022-08-07T17:52:12.739Z,23.50
2022-08-07T17:54:11.475Z,23.50
2022-08-07T17:56:15.368Z,23.50
2022-08-07T17:58:10.406Z,23.50
2022-08-07T18:00:11.295Z,23.40
2022-08-07T18:02:10.906Z,23.40
2022-08-07T18:04:16.519Z,23.30
2022-08-07T18:06:16.666Z,23.20
2022-08-07T18:08:16.377Z,23.00
2022-08-07T18:10:28.584Z,23.00
2022-08-07T18:12:19.948Z,23.00
2022-08-07T18:14:10.374Z,22.80
2022-08-07T18:16:10.399Z,22.80
2022-08-07T18:19:02.737Z,22.70
2022-08-07T18:21:11.699Z,22.50
2022-08-07T18:22:16.931Z,22.50
2022-08-07T18:24:10.383Z,22.40
2022-08-07T18:26:15.229Z,22.30
2022-08-07T18:28:15.042Z,22.40
2022-08-07T18:30:32.636Z,22.40
2022-08-07T18:32:10.411Z,22.40
2022-08-07T18:34:40.746Z,22.20
2022-08-07T18:36:10.440Z,22.00
2022-08-07T18:38:58.483Z,22.00
2022-08-07T18:40:18.239Z,22.00
2022-08-07T18:42:13.070Z,21.80
2022-08-07T18:44:10.459Z,21.70
2022-08-07T18:46:25.392Z,21.60
2022-08-07T18:48:10.477Z,21.50
2022-08-07T18:50:39.739Z,21.50
2022-08-07T18:52:41.062Z,21.30
2022-08-07T18:54:30.818Z,21.10
2022-08-07T18:56:12.515Z,21.10
2022-08-07T18:58:15.056Z,20.90
2022-08-07T19:00:32.545Z,20.90
2022-08-07T19:02:32.519Z,20.70
2022-08-07T19:04:13.743Z,20.50
2022-08-07T19:06:10.468Z,20.30
2022-08-07T19:08:10.393Z,20.30
2022-08-07T19:10:18.193Z,20.10
2022-08-07T19:12:10.406Z,19.90
2022-08-07T19:14:11.497Z,19.60
2022-08-07T19:17:00.625Z,19.70
2022-08-07T19:18:11.532Z,19.70
2022-08-07T19:20:29.390Z,19.70
2022-08-07T19:22:11.154Z,19.60
2022-08-07T19:24:10.418Z,19.40
2022-08-07T19:26:23.395Z,19.30
2022-08-07T19:28:57.906Z,19.30
2022-08-07T19:31:05.331Z,19.10
2022-08-07T19:32:17.107Z,19.10
2022-08-07T19:34:10.511Z,19.00
2022-08-07T19:36:10.487Z,19.00
2022-08-07T19:38:16.038Z,18.90
2022-08-07T19:40:10.541Z,18.80
2022-08-07T19:42:22.325Z,18.70
2022-08-07T19:44:21.794Z,18.60
2022-08-07T19:46:10.790Z,18.60
2022-08-07T19:48:18.359Z,18.40
2022-08-07T19:50:45.089Z,18.30
2022-08-07T19:52:42.027Z,18.40
2022-08-07T19:54:55.930Z,18.40
2022-08-07T19:57:52.083Z,18.30
2022-08-07T19:58:44.865Z,18.30
2022-08-07T20:00:40.453Z,18.30
2022-08-07T20:02:40.419Z,18.00
2022-08-07T20:04:40.552Z,17.90
2022-08-07T20:06:43.012Z,17.70
2022-08-07T20:08:45.145Z,17.70
2022-08-07T20:10:54.403Z,17.60
2022-08-07T20:12:42.802Z,17.40
2022-08-07T20:14:54.155Z,17.20
2022-08-07T20:16:40.443Z,17.10
2022-08-07T20:18:40.687Z,17.10
2022-08-07T20:20:40.502Z,17.00
2022-08-07T20:22:40.817Z,17.00
2022-08-07T20:24:40.619Z,17.00
2022-08-07T20:26:46.057Z,16.90
2022-08-07T20:28:40.429Z,16.90
2022-08-07T20:30:40.539Z,16.90
2022-08-07T20:32:40.934Z,16.80
2022-08-07T20:34:50.801Z,16.70
2022-08-07T20:36:40.599Z,16.70
2022-08-07T20:38:59.358Z,16.60
2022-08-07T20:40:41.334Z,16.60
2022-08-07T20:42:40.553Z,16.50
2022-08-07T20:44:40.558Z,16.40
2022-08-07T20:46:44.333Z,16.40
2022-08-07T20:48:57.885Z,16.30
2022-08-07T20:50:40.686Z,16.20
2022-08-07T20:52:51.118Z,16.20
2022-08-07T20:54:45.547Z,16.10
2022-08-07T20:58:40.523Z,16.00
2022-08-07T21:04:48.723Z,15.90
2022-08-07T21:06:53.645Z,15.90
2022-08-07T21:08:48.717Z,16.20
2022-08-07T21:10:48.759Z,16.50
2022-08-07T21:12:48.724Z,16.50
2022-08-07T21:14:53.575Z,16.50
2022-08-07T21:16:56.753Z,16.40
2022-08-07T21:18:50.506Z,16.30
2022-08-07T21:20:56.372Z,16.30
2022-08-07T21:22:51.236Z,16.00
2022-08-07T21:24:49.035Z,16.00
2022-08-07T21:26:48.797Z,16.00
2022-08-07T21:28:50.929Z,16.00
2022-08-07T21:30:48.715Z,16.10
2022-08-07T21:32:52.270Z,16.10
2022-08-07T21:34:48.994Z,16.10
2022-08-07T21:36:50.420Z,16.10
2022-08-07T21:38:49.863Z,16.00
2022-08-07T21:40:49.482Z,16.00
2022-08-07T21:42:48.947Z,16.00
2022-08-07T21:44:51.022Z,16.00
2022-08-07T21:46:48.759Z,16.10
2022-08-07T21:48:56.595Z,16.10
2022-08-07T21:50:48.724Z,16.10
2022-08-07T21:52:48.748Z,16.10
2022-08-07T21:54:48.775Z,16.00
2022-08-07T21:56:49.290Z,16.00
2022-08-07T21:58:48.725Z,15.90
2022-08-07T22:00:48.726Z,15.90
2022-08-07T22:02:48.775Z,15.90
2022-08-07T22:04:53.638Z,15.60
2022-08-07T22:06:49.697Z,15.60
2022-08-07T22:08:48.743Z,15.40
2022-08-07T22:10:48.732Z,15.40
2022-08-07T22:12:49.591Z,15.20
2022-08-07T22:14:59.864Z,15.30
2022-08-07T22:16:48.742Z,15.30
2022-08-07T22:18:48.754Z,15.20
2022-08-07T22:20:48.741Z,15.20
2022-08-07T22:22:49.301Z,15.20
2022-08-07T22:25:18.745Z,15.20
2022-08-07T22:27:18.765Z,15.10
2022-08-07T22:29:18.745Z,15.00
2022-08-07T22:31:59.461Z,15.00
2022-08-07T22:33:18.763Z,15.00
2022-08-07T22:35:18.865Z,14.80
2022-08-07T22:37:18.750Z,14.80
2022-08-07T22:39:18.861Z,14.70
2022-08-07T22:41:20.089Z,14.70
2022-08-07T22:43:18.771Z,14.70
2022-08-07T22:46:04.547Z,14.90
2022-08-07T22:47:18.761Z,15.00
2022-08-07T22:49:18.779Z,15.00
2022-08-07T22:51:18.862Z,15.10
2022-08-07T22:53:18.780Z,15.10
2022-08-07T22:55:23.005Z,15.10
2022-08-07T22:57:18.795Z,15.00
2022-08-07T22:59:18.771Z,15.00
2022-08-07T23:01:18.769Z,15.00
2022-08-07T23:03:18.879Z,15.00
2022-08-07T23:06:14.979Z,15.00
2022-08-07T23:07:40.100Z,15.00
2022-08-07T23:10:05.526Z,15.00
2022-08-07T23:11:18.790Z,15.00
2022-08-07T23:13:18.782Z,14.60
2022-08-07T23:15:21.968Z,14.50
2022-08-07T23:17:20.325Z,14.40
2022-08-07T23:19:19.484Z,14.30
2022-08-07T23:21:18.782Z,14.30
2022-08-07T23:24:05.425Z,14.30
2022-08-07T23:25:18.785Z,14.10
2022-08-07T23:27:18.795Z,14.00
2022-08-07T23:29:43.735Z,14.00
2022-08-07T23:32:48.851Z,14.00
2022-08-07T23:34:23.499Z,13.90
2022-08-07T23:35:18.824Z,13.90
2022-08-07T23:37:22.636Z,13.80
2022-08-07T23:39:22.162Z,13.80
2022-08-07T23:41:18.817Z,13.70
2022-08-07T23:43:18.814Z,13.70
2022-08-07T23:45:33.438Z,13.60
2022-08-07T23:47:18.870Z,13.50
2022-08-07T23:49:18.818Z,13.50
2022-08-07T23:52:55.963Z,13.50
2022-08-07T23:53:19.393Z,13.40
2022-08-07T23:55:52.052Z,13.40
2022-08-07T23:57:18.842Z,13.40
